Time;durP1;ratioP1;P1;durP2;ratioP2;P2;SDS_P1;SDS_P2;PMS_P1;PMS_P2;Temp;Humidity;BMP_temperature;BMP_pressure;BME280_temperature;BME280_humidity;BME280_pressure;Samples;Min_cycle;Max_cycle;Signal;HPM_P1;HPM_P2
2023/05/05 00:01:56;;;;;;;2.20;1.80;;;11.80;99.90;;;;;;5073879;28;21030;-85
2023/05/05 00:04:23;;;;;;;2.33;1.63;;;11.80;99.90;;;;;;5073259;28;20472;-85
2023/05/05 00:06:50;;;;;;;1.70;1.60;;;11.80;99.90;;;;;;5079444;22;20588;-60
2023/05/05 00:09:17;;;;;;;2.33;2.00;;;11.40;99.90;;;;;;5052033;28;20501;-59
2023/05/05 00:11:44;;;;;;;2.20;1.67;;;11.00;99.90;;;;;;5052261;28;20836;-58
2023/05/05 00:14:12;;;;;;;1.73;1.53;;;11.30;99.90;;;;;;5051339;28;21003;-58
2023/05/05 00:16:39;;;;;;;1.80;1.60;;;11.60;99.90;;;;;;5051442;28;20484;-58
2023/05/05 00:19:06;;;;;;;2.23;1.63;;;11.70;99.90;;;;;;5051400;28;20552;-58
2023/05/05 00:21:33;;;;;;;1.93;1.73;;;11.50;99.90;;;;;;5052343;28;20446;-59
2023/05/05 00:24:00;;;;;;;2.47;1.60;;;10.80;99.90;;;;;;5051504;28;20943;-58
2023/05/05 00:26:27;;;;;;;3.60;1.80;;;10.80;99.90;;;;;;5051179;28;20913;-58
2023/05/05 00:28:54;;;;;;;1.97;1.30;;;11.10;99.90;;;;;;5051438;28;20497;-58
2023/05/05 00:31:22;;;;;;;1.60;1.37;;;11.40;99.90;;;;;;5051502;28;20470;-58
2023/05/05 00:33:49;;;;;;;2.87;1.47;;;11.40;99.90;;;;;;5051578;28;20511;-58
2023/05/05 00:36:16;;;;;;;2.10;1.50;;;11.40;99.90;;;;;;5050840;28;20445;-59
2023/05/05 00:38:43;;;;;;;2.47;1.70;;;11.10;99.90;;;;;;5050311;28;20548;-59
2023/05/05 00:41:10;;;;;;;2.87;1.63;;;11.10;99.90;;;;;;5050905;28;20473;-59
2023/05/05 00:43:37;;;;;;;2.23;1.63;;;11.10;99.90;;;;;;5050696;28;20503;-59
2023/05/05 00:46:13;;;;;;;2.07;1.50;;;11.10;99.90;;;;;;5051410;28;20481;-59
2023/05/05 00:48:42;;;;;;;2.17;1.67;;;11.30;99.90;;;;;;5051119;28;20503;-58
2023/05/05 00:51:09;;;;;;;1.83;1.60;;;11.30;99.90;;;;;;5050961;28;20453;-59
2023/05/05 00:53:38;;;;;;;2.43;1.40;;;11.40;99.90;;;;;;5051108;28;20759;-58
2023/05/05 00:56:06;;;;;;;3.20;1.90;;;11.40;99.90;;;;;;5051216;28;20441;-58
2023/05/05 00:58:34;;;;;;;3.73;1.80;;;11.50;99.90;;;;;;5051172;28;20458;-58
2023/05/05 01:01:00;;;;;;;4.73;1.60;;;11.50;99.90;;;;;;5050963;28;20532;-58
2023/05/05 01:03:27;;;;;;;2.73;1.80;;;11.40;99.90;;;;;;5051335;28;20453;-58
2023/05/05 01:06:05;;;;;;;2.20;1.70;;;11.00;99.90;;;;;;5049942;28;20552;-59
2023/05/05 01:08:42;;;;;;;1.87;1.43;;;11.10;99.90;;;;;;5050732;28;20548;-56
2023/05/05 01:11:14;;;;;;;2.73;1.93;;;11.30;99.90;;;;;;5051029;28;20527;-59
2023/05/05 01:13:51;;;;;;;1.77;1.60;;;11.20;99.90;;;;;;5050174;28;20608;-59
2023/05/05 01:16:20;;;;;;;2.03;1.50;;;11.00;99.90;;;;;;5048991;28;20477;-59
2023/05/05 01:18:56;;;;;;;2.53;1.50;;;10.90;99.90;;;;;;5048655;28;20553;-59
2023/05/05 01:21:30;;;;;;;2.63;1.50;;;11.00;99.90;;;;;;5049473;28;20480;-58
2023/05/05 01:24:27;;;;;;;2.07;1.30;;;11.10;99.90;;;;;;5049284;28;20521;-58
2023/05/05 01:27:14;;;;;;;1.80;1.20;;;11.10;99.90;;;;;;5042502;28;20955;-58
2023/05/05 01:30:01;;;;;;;1.80;1.27;;;11.20;99.90;;;;;;5051048;28;20527;-59
2023/05/05 01:32:34;;;;;;;2.33;1.57;;;11.20;99.90;;;;;;5050606;28;20441;-58
2023/05/05 01:35:04;;;;;;;1.90;1.47;;;11.20;99.90;;;;;;5050166;28;20567;-58
2023/05/05 01:37:36;;;;;;;1.80;1.30;;;11.10;99.90;;;;;;5050984;28;20540;-59
2023/05/05 01:40:08;;;;;;;2.03;1.67;;;11.00;99.90;;;;;;5050602;28;20496;-58
2023/05/05 01:42:36;;;;;;;2.77;1.67;;;11.10;99.90;;;;;;5050907;28;20482;-59
2023/05/05 01:45:07;;;;;;;3.07;1.40;;;11.10;99.90;;;;;;5050366;28;20448;-58
2023/05/05 01:47:37;;;;;;;1.50;1.23;;;11.00;99.90;;;;;;5049949;28;20535;-58
2023/05/05 01:50:06;;;;;;;1.97;1.37;;;11.10;99.90;;;;;;5050197;28;20516;-58
2023/05/05 01:52:35;;;;;;;3.00;1.50;;;10.90;99.90;;;;;;5050814;28;20449;-59
2023/05/05 01:55:03;;;;;;;4.37;1.60;;;10.90;99.90;;;;;;5050367;28;20580;-58
2023/05/05 01:57:31;;;;;;;1.93;1.20;;;11.00;99.90;;;;;;5050660;28;20435;-58
2023/05/05 02:00:00;;;;;;;2.07;1.63;;;11.00;99.90;;;;;;5050312;28;20465;-59
2023/05/05 02:02:28;;;;;;;2.07;1.70;;;10.90;99.90;;;;;;5050841;28;20492;-58
2023/05/05 02:04:59;;;;;;;4.30;2.00;;;10.80;99.90;;;;;;5050059;28;20503;-58
2023/05/05 02:07:27;;;;;;;2.13;1.50;;;10.80;99.90;;;;;;5050494;28;20540;-57
2023/05/05 02:09:55;;;;;;;2.07;1.50;;;10.90;99.90;;;;;;5050112;28;20587;-57
2023/05/05 02:12:23;;;;;;;4.20;2.30;;;10.70;99.90;;;;;;5049784;28;20488;-58
2023/05/05 02:14:52;;;;;;;3.50;2.20;;;10.70;99.90;;;;;;5050283;28;20567;-58
2023/05/05 02:17:21;;;;;;;2.43;1.43;;;10.80;99.90;;;;;;5050082;28;20530;-58
2023/05/05 02:19:52;;;;;;;3.03;1.80;;;10.80;99.90;;;;;;5052951;28;20984;-58
2023/05/05 02:22:20;;;;;;;2.13;1.93;;;10.80;99.90;;;;;;5054142;28;20448;-59
2023/05/05 02:24:47;;;;;;;3.33;2.27;;;10.80;99.90;;;;;;5054048;28;20449;-58
2023/05/05 02:27:16;;;;;;;2.47;1.90;;;10.70;99.90;;;;;;5053855;28;20456;-59
2023/05/05 02:29:48;;;;;;;1.87;1.50;;;10.70;99.90;;;;;;5054041;28;20994;-59
2023/05/05 02:32:18;;;;;;;3.43;2.00;;;10.90;99.90;;;;;;5053967;28;20884;-58
2023/05/05 02:34:48;;;;;;;2.80;1.70;;;10.90;99.90;;;;;;5053661;28;20478;-59
2023/05/05 02:37:21;;;;;;;1.80;1.30;;;10.90;99.90;;;;;;5053711;28;20883;-58
2023/05/05 02:39:57;;;;;;;3.60;1.60;;;10.80;99.90;;;;;;5053314;28;20459;-58
2023/05/05 02:42:28;;;;;;;4.70;1.90;;;10.80;99.90;;;;;;5053071;28;20454;-58
2023/05/05 02:44:58;;;;;;;2.07;1.73;;;10.60;99.90;;;;;;5033771;28;20445;-58
2023/05/05 02:47:34;;;;;;;2.13;1.40;;;10.60;99.90;;;;;;5033064;28;20511;-58
2023/05/05 02:50:01;;;;;;;2.23;1.80;;;10.70;99.90;;;;;;5032029;28;20886;-59
2023/05/05 02:52:29;;;;;;;1.90;1.50;;;10.80;99.90;;;;;;5032167;28;20536;-58
2023/05/05 02:54:56;;;;;;;2.20;1.70;;;10.70;99.90;;;;;;5039361;28;20515;-59
2023/05/05 02:57:31;;;;;;;1.70;1.20;;;10.70;99.90;;;;;;5052203;28;20488;-58
2023/05/05 03:00:04;;;;;;;1.53;1.20;;;10.90;99.90;;;;;;5051601;28;20627;-58
2023/05/05 03:02:40;;;;;;;3.10;1.30;;;10.60;99.90;;;;;;5051615;28;20539;-58
2023/05/05 03:05:11;;;;;;;2.43;2.07;;;10.80;99.90;;;;;;5052707;28;20521;-59
2023/05/05 03:07:44;;;;;;;1.90;1.50;;;10.80;99.90;;;;;;5052588;28;20489;-58
2023/05/05 03:10:15;;;;;;;1.83;1.40;;;10.70;99.90;;;;;;5053148;28;20486;-58
2023/05/05 03:12:46;;;;;;;6.57;2.23;;;10.80;99.90;;;;;;5052909;28;20936;-58
2023/05/05 03:15:14;;;;;;;2.70;1.57;;;10.70;99.90;;;;;;5052889;28;20516;-59
2023/05/05 03:17:43;;;;;;;1.80;1.67;;;10.70;99.90;;;;;;5052525;28;20448;-58
2023/05/05 03:20:13;;;;;;;1.80;1.67;;;10.60;99.90;;;;;;5052777;28;20535;-58
2023/05/05 03:22:42;;;;;;;3.13;1.70;;;10.50;99.90;;;;;;5052411;28;20445;-58
2023/05/05 03:25:09;;;;;;;1.87;1.60;;;10.50;99.90;;;;;;5052131;28;20523;-58
2023/05/05 03:27:36;;;;;;;2.27;1.50;;;10.50;99.90;;;;;;5051959;28;20575;-59
2023/05/05 03:30:03;;;;;;;1.53;1.43;;;10.70;99.90;;;;;;5052051;28;20500;-58
2023/05/05 03:32:30;;;;;;;2.33;1.83;;;10.60;99.90;;;;;;5052614;28;21152;-59
2023/05/05 03:34:57;;;;;;;1.70;1.27;;;10.60;99.90;;;;;;5051939;28;20525;-59
2023/05/05 03:37:24;;;;;;;2.20;1.60;;;10.60;99.90;;;;;;5052767;28;20437;-59
2023/05/05 03:39:52;;;;;;;2.27;1.43;;;10.60;99.90;;;;;;5052353;28;21065;-58
2023/05/05 03:42:19;;;;;;;2.73;1.67;;;10.60;99.90;;;;;;5052108;28;20483;-59
2023/05/05 03:44:46;;;;;;;2.33;1.57;;;10.60;99.90;;;;;;5052275;28;20786;-59
2023/05/05 03:47:13;;;;;;;2.10;1.50;;;10.60;99.90;;;;;;5052552;28;20469;-59
2023/05/05 03:49:40;;;;;;;2.37;1.83;;;10.50;99.90;;;;;;5052025;28;20543;-60
2023/05/05 03:52:07;;;;;;;2.10;1.53;;;10.20;99.90;;;;;;5052594;28;20544;-59
2023/05/05 03:54:34;;;;;;;2.67;1.97;;;10.20;99.90;;;;;;5052006;28;20473;-58
2023/05/05 03:57:02;;;;;;;1.67;1.40;;;10.30;99.90;;;;;;5052204;28;20536;-59
2023/05/05 03:59:29;;;;;;;1.87;1.73;;;10.40;99.90;;;;;;5052366;28;20525;-58
2023/05/05 04:01:56;;;;;;;1.40;1.30;;;10.50;99.90;;;;;;5051593;28;20480;-57
2023/05/05 04:04:23;;;;;;;2.20;1.93;;;10.50;99.90;;;;;;5051321;28;20440;-59
2023/05/05 04:06:50;;;;;;;1.53;1.40;;;10.20;99.90;;;;;;5052042;28;20971;-58
2023/05/05 04:09:17;;;;;;;2.33;1.70;;;10.50;99.90;;;;;;5051813;28;20502;-58
2023/05/05 04:11:44;;;;;;;2.57;1.73;;;10.60;99.90;;;;;;5051136;28;20468;-59
2023/05/05 04:14:12;;;;;;;2.10;1.80;;;10.80;99.90;;;;;;5051362;28;20540;-58
2023/05/05 04:16:39;;;;;;;3.37;2.10;;;10.80;99.90;;;;;;5050798;28;21080;-59
2023/05/05 04:19:06;;;;;;;3.83;3.47;;;10.80;99.90;;;;;;5051515;28;21056;-59
2023/05/05 04:21:33;;;;;;;3.83;3.07;;;10.80;99.90;;;;;;5051849;28;20476;-58
2023/05/05 04:23:59;;;;;;;4.97;3.40;;;10.60;99.90;;;;;;5051767;28;20523;-58
2023/05/05 04:26:27;;;;;;;2.90;2.50;;;10.20;99.90;;;;;;5051155;28;20444;-59
2023/05/05 04:28:54;;;;;;;3.40;2.40;;;10.40;99.90;;;;;;5051213;28;20464;-58
2023/05/05 04:31:22;;;;;;;3.17;1.70;;;10.50;99.90;;;;;;5051367;28;20456;-58
2023/05/05 04:33:49;;;;;;;4.83;2.20;;;10.60;99.90;;;;;;5051396;28;20550;-58
2023/05/05 04:36:17;;;;;;;2.27;1.57;;;10.70;99.90;;;;;;5050451;28;20561;-58
2023/05/05 04:38:44;;;;;;;2.47;1.83;;;10.60;99.90;;;;;;5050895;28;20467;-58
2023/05/05 04:41:11;;;;;;;2.47;2.07;;;10.50;99.90;;;;;;5050423;28;20525;-59
2023/05/05 04:43:38;;;;;;;2.67;1.93;;;10.60;99.90;;;;;;5050706;28;20453;-59
2023/05/05 04:46:05;;;;;;;2.90;2.00;;;10.70;99.90;;;;;;5051256;28;20536;-59
2023/05/05 04:48:35;;;;;;;1.93;1.73;;;10.80;99.90;;;;;;5050782;28;20515;-58
2023/05/05 04:51:04;;;;;;;3.50;2.20;;;10.90;99.90;;;;;;5051523;28;20962;-59
2023/05/05 04:53:31;;;;;;;4.00;2.30;;;10.90;99.90;;;;;;5050937;28;20455;-59
2023/05/05 04:55:59;;;;;;;4.30;2.33;;;10.60;99.90;;;;;;5051428;28;20530;-58
2023/05/05 04:58:26;;;;;;;2.97;2.03;;;10.80;99.90;;;;;;5050389;28;20987;-59
2023/05/05 05:00:53;;;;;;;3.37;2.90;;;10.90;99.90;;;;;;5050876;28;20482;-58
2023/05/05 05:03:20;;;;;;;4.27;2.53;;;11.00;99.90;;;;;;5050428;28;20536;-58
2023/05/05 05:05:48;;;;;;;2.53;2.00;;;11.10;99.90;;;;;;5050002;28;20519;-59
2023/05/05 05:08:16;;;;;;;3.73;2.90;;;11.20;99.90;;;;;;5050477;28;20489;-59
2023/05/05 05:10:43;;;;;;;11.00;3.30;;;11.20;99.90;;;;;;5050272;28;20458;-58
2023/05/05 05:13:10;;;;;;;9.43;3.73;;;11.10;99.90;;;;;;5046558;28;20449;-58
2023/05/05 05:15:37;;;;;;;4.00;3.20;;;10.40;99.90;;;;;;5048616;28;20556;-58
2023/05/05 05:18:04;;;;;;;3.03;2.70;;;10.00;99.90;;;;;;5049579;28;20529;-58
2023/05/05 05:20:32;;;;;;;3.50;2.60;;;10.10;99.90;;;;;;5049238;28;20535;-58
2023/05/05 05:23:00;;;;;;;2.70;2.50;;;10.40;99.90;;;;;;5051000;28;20772;-58
2023/05/05 05:25:28;;;;;;;3.07;2.77;;;10.70;99.90;;;;;;5050876;28;20591;-58
2023/05/05 05:27:55;;;;;;;3.90;2.63;;;11.00;99.90;;;;;;5050665;28;20491;-58
2023/05/05 05:30:21;;;;;;;3.17;2.60;;;11.10;99.90;;;;;;5050015;28;20481;-59
2023/05/05 05:32:48;;;;;;;4.53;2.93;;;11.20;99.90;;;;;;5050773;28;20447;-59
2023/05/05 05:35:15;;;;;;;3.77;2.83;;;10.90;99.90;;;;;;5049616;28;20976;-59
2023/05/05 05:37:42;;;;;;;5.60;2.90;;;10.90;99.90;;;;;;5050585;28;20514;-59
2023/05/05 05:40:11;;;;;;;3.80;3.20;;;11.00;99.90;;;;;;5050834;28;20976;-59
2023/05/05 05:42:38;;;;;;;4.40;3.10;;;11.20;99.90;;;;;;5051055;28;20476;-59
2023/05/05 05:45:07;;;;;;;4.60;2.67;;;11.30;99.90;;;;;;5050236;28;20445;-58
2023/05/05 05:47:33;;;;;;;2.90;2.60;;;11.40;99.90;;;;;;5050526;28;20494;-58
2023/05/05 05:50:00;;;;;;;2.50;2.30;;;11.20;99.90;;;;;;5050393;28;20561;-58
2023/05/05 05:52:27;;;;;;;5.10;2.73;;;11.40;99.90;;;;;;5051765;28;20902;-59
2023/05/05 05:54:55;;;;;;;2.93;2.47;;;11.60;99.90;;;;;;5054360;28;20481;-59
2023/05/05 05:57:23;;;;;;;10.67;3.77;;;11.80;99.90;;;;;;5054085;28;20456;-58
2023/05/05 05:59:50;;;;;;;5.13;4.10;;;11.70;99.90;;;;;;5052962;28;20497;-59
2023/05/05 06:02:17;;;;;;;7.13;3.90;;;11.70;99.90;;;;;;5054204;28;20448;-58
2023/05/05 06:04:45;;;;;;;3.83;3.53;;;11.50;99.90;;;;;;5054500;28;20539;-59
2023/05/05 06:07:12;;;;;;;5.07;3.60;;;11.30;99.90;;;;;;5052964;28;20822;-59
2023/05/05 06:09:39;;;;;;;5.70;3.80;;;11.10;99.90;;;;;;5053222;28;20519;-59
2023/05/05 06:12:06;;;;;;;5.10;3.97;;;11.10;99.90;;;;;;5054218;28;20529;-59
2023/05/05 06:14:34;;;;;;;4.97;3.50;;;11.10;99.90;;;;;;5053689;28;20817;-59
2023/05/05 06:17:01;;;;;;;2.93;1.73;;;11.10;99.90;;;;;;5052754;28;20561;-59
2023/05/05 06:21:56;;;;;;;2.50;1.90;;;11.40;99.90;;;;;;5033328;28;20466;-79
2023/05/05 06:24:23;;;;;;;4.43;2.60;;;11.50;99.90;;;;;;5033873;28;20487;-79
2023/05/05 06:26:50;;;;;;;10.27;4.67;;;11.70;99.90;;;;;;5034523;28;20497;-79
2023/05/05 06:29:17;;;;;;;6.40;4.10;;;11.80;99.90;;;;;;5033749;28;20465;-79
2023/05/05 06:31:45;;;;;;;7.57;6.03;;;11.80;99.90;;;;;;5034010;28;20992;-78
2023/05/05 06:34:12;;;;;;;6.43;5.83;;;11.90;99.90;;;;;;5068264;22;20548;-56
2023/05/05 06:36:39;;;;;;;7.20;4.97;;;11.70;99.90;;;;;;5093845;28;21074;-56
2023/05/05 06:39:06;;;;;;;5.47;4.60;;;11.70;99.90;;;;;;5093822;28;20464;-55
2023/05/05 06:41:33;;;;;;;6.43;4.97;;;11.80;99.90;;;;;;5094025;28;20603;-56
2023/05/05 06:44:00;;;;;;;13.67;5.73;;;11.80;99.90;;;;;;5093366;28;20471;-55
2023/05/05 06:46:27;;;;;;;5.80;4.40;;;11.90;99.90;;;;;;5093951;28;20482;-56
2023/05/05 06:48:55;;;;;;;5.40;3.70;;;11.90;99.90;;;;;;5094046;28;20485;-56
2023/05/05 06:51:22;;;;;;;6.70;4.50;;;12.00;99.90;;;;;;5093469;28;20546;-55
2023/05/05 06:53:49;;;;;;;11.13;5.47;;;12.10;99.90;;;;;;5093305;28;20436;-57
2023/05/05 06:56:17;;;;;;;6.37;5.40;;;12.10;99.90;;;;;;5093338;28;20481;-55
2023/05/05 06:58:43;;;;;;;6.23;5.10;;;12.20;99.90;;;;;;5093447;28;20799;-56
2023/05/05 07:01:10;;;;;;;7.60;5.60;;;12.20;99.90;;;;;;5093680;28;20510;-56
2023/05/05 07:03:37;;;;;;;6.23;4.57;;;12.20;99.90;;;;;;5093125;28;20444;-55
2023/05/05 07:06:06;;;;;;;10.20;5.17;;;12.20;99.90;;;;;;5093167;28;20543;-56
2023/05/05 07:08:32;;;;;;;5.83;4.80;;;12.30;99.90;;;;;;5093177;28;20523;-56
2023/05/05 07:11:00;;;;;;;9.17;5.63;;;12.30;99.90;;;;;;5093319;28;20547;-55
2023/05/05 07:13:27;;;;;;;10.23;7.27;;;12.30;99.90;;;;;;5093502;28;20436;-56
2023/05/05 07:15:54;;;;;;;8.27;6.70;;;12.30;99.90;;;;;;5093139;28;20510;-57
2023/05/05 07:18:21;;;;;;;9.20;6.37;;;12.40;99.90;;;;;;5092527;28;20487;-56
2023/05/05 07:20:49;;;;;;;7.10;5.47;;;12.50;99.90;;;;;;5090441;28;20551;-56
2023/05/05 07:23:17;;;;;;;5.33;4.63;;;12.50;99.90;;;;;;5091687;28;20530;-55
2023/05/05 07:25:44;;;;;;;6.97;5.07;;;12.70;99.90;;;;;;5082860;28;20523;-56
2023/05/05 07:28:11;;;;;;;4.40;3.10;;;12.90;99.90;;;;;;5092308;28;20440;-55
2023/05/05 07:30:38;;;;;;;7.00;3.27;;;12.90;99.90;;;;;;5091372;28;20550;-55
2023/05/05 07:33:05;;;;;;;5.50;3.97;;;13.00;99.90;;;;;;5089737;28;20464;-55
2023/05/05 07:35:32;;;;;;;4.77;3.83;;;13.20;99.90;;;;;;5089583;28;20444;-57
2023/05/05 07:37:59;;;;;;;8.23;4.30;;;13.30;99.90;;;;;;5088000;28;20483;-56
2023/05/05 07:40:27;;;;;;;4.47;2.80;;;13.40;99.90;;;;;;5091951;28;20989;-55
2023/05/05 07:42:54;;;;;;;4.50;3.60;;;13.50;99.90;;;;;;5092980;28;20539;-56
2023/05/05 07:45:21;;;;;;;3.83;3.43;;;13.50;99.90;;;;;;5091761;28;20475;-55
2023/05/05 07:47:48;;;;;;;7.00;3.53;;;13.60;99.90;;;;;;5092696;28;20522;-55
2023/05/05 07:50:15;;;;;;;4.77;3.60;;;13.60;99.90;;;;;;5091548;28;20508;-55
2023/05/05 07:52:42;;;;;;;4.00;2.33;;;13.70;99.90;;;;;;5092044;28;20650;-54
2023/05/05 07:55:09;;;;;;;6.60;3.03;;;13.70;99.90;;;;;;5092332;28;20482;-56
2023/05/05 07:57:38;;;;;;;5.30;2.60;;;13.70;99.90;;;;;;5092357;28;20482;-55
2023/05/05 08:00:06;;;;;;;3.63;2.83;;;13.70;99.90;;;;;;5091981;28;20551;-55
2023/05/05 08:02:32;;;;;;;3.37;3.07;;;13.80;99.90;;;;;;5092553;28;20463;-57
2023/05/05 08:04:59;;;;;;;4.33;2.67;;;13.80;99.90;;;;;;5092334;28;20530;-55
2023/05/05 08:07:26;;;;;;;3.50;2.90;;;13.70;99.90;;;;;;5092035;28;20844;-56
2023/05/05 08:09:53;;;;;;;3.60;2.70;;;13.50;99.90;;;;;;5092060;28;20581;-55
2023/05/05 08:12:20;;;;;;;4.37;2.30;;;13.40;99.90;;;;;;5091399;28;20467;-56
2023/05/05 08:14:48;;;;;;;2.67;2.47;;;13.60;99.90;;;;;;5091637;28;20538;-57
2023/05/05 08:17:15;;;;;;;2.70;2.30;;;13.90;99.90;;;;;;5090913;28;21100;-57
2023/05/05 08:19:42;;;;;;;2.30;2.10;;;14.00;99.90;;;;;;5091134;28;20436;-57
2023/05/05 08:22:09;;;;;;;2.97;2.40;;;14.10;99.90;;;;;;5090691;28;20988;-56
2023/05/05 08:24:36;;;;;;;2.57;2.30;;;14.00;99.90;;;;;;5090874;28;20961;-56
2023/05/05 08:27:03;;;;;;;4.70;3.80;;;14.00;99.90;;;;;;5091608;28;20470;-57
2023/05/05 08:29:30;;;;;;;3.47;3.17;;;14.10;99.90;;;;;;5090941;28;20844;-54
2023/05/05 08:31:58;;;;;;;3.13;2.40;;;14.10;99.90;;;;;;5091629;28;20539;-54
2023/05/05 08:34:25;;;;;;;6.13;3.30;;;14.10;99.90;;;;;;5090759;28;20542;-54
2023/05/05 08:36:52;;;;;;;3.27;2.20;;;14.00;99.90;;;;;;5091484;28;20570;-56
2023/05/05 08:39:19;;;;;;;3.37;2.87;;;14.00;99.90;;;;;;5091580;28;20876;-56
2023/05/05 08:41:45;;;;;;;3.17;2.80;;;14.10;99.90;;;;;;5091393;28;21058;-55
2023/05/05 08:44:12;;;;;;;5.17;3.57;;;14.30;99.90;;;;;;5090905;28;20471;-57
2023/05/05 08:46:41;;;;;;;4.00;2.73;;;14.50;99.90;;;;;;5091489;28;20999;-55
2023/05/05 08:49:13;;;;;;;3.50;2.60;;;14.80;99.90;;;;;;5091253;28;20446;-55
2023/05/05 08:51:43;;;;;;;4.03;3.23;;;14.90;99.90;;;;;;5091482;28;20539;-55
2023/05/05 08:54:15;;;;;;;3.23;2.93;;;15.00;99.90;;;;;;5091641;28;20486;-55
2023/05/05 08:56:45;;;;;;;5.20;3.73;;;15.00;99.90;;;;;;5091446;28;21011;-55
2023/05/05 08:59:14;;;;;;;3.30;2.97;;;15.20;99.90;;;;;;5091073;28;20657;-55
2023/05/05 09:01:41;;;;;;;3.47;2.77;;;15.30;99.90;;;;;;5089893;28;20492;-55
2023/05/05 09:04:10;;;;;;;4.00;2.60;;;15.40;99.90;;;;;;5090783;28;20927;-55
2023/05/05 09:06:37;;;;;;;2.60;2.23;;;15.50;99.90;;;;;;5090970;28;20982;-55
2023/05/05 09:09:04;;;;;;;3.00;2.70;;;15.70;99.90;;;;;;5090986;28;20518;-55
2023/05/05 09:11:33;;;;;;;2.77;2.10;;;15.80;99.90;;;;;;5091043;28;20563;-55
2023/05/05 09:14:00;;;;;;;3.17;2.20;;;16.00;99.90;;;;;;5090829;28;20552;-55
2023/05/05 09:16:27;;;;;;;3.33;2.00;;;16.10;99.90;;;;;;5089361;28;20468;-55
2023/05/05 09:19:02;;;;;;;3.37;2.73;;;16.50;99.90;;;;;;5080497;28;20476;-55
2023/05/05 09:21:31;;;;;;;3.50;2.10;;;16.40;99.90;;;;;;5084741;28;20466;-55
2023/05/05 09:24:05;;;;;;;2.37;2.10;;;16.50;99.90;;;;;;5088184;28;20449;-55
2023/05/05 09:26:34;;;;;;;2.83;1.90;;;16.60;99.90;;;;;;5077689;28;20443;-55
2023/05/05 09:29:01;;;;;;;2.93;2.13;;;16.80;99.90;;;;;;5090141;28;20443;-56
2023/05/05 09:31:30;;;;;;;3.33;2.50;;;16.90;99.90;;;;;;5088480;28;20461;-55
2023/05/05 09:33:59;;;;;;;2.40;2.20;;;17.00;99.90;;;;;;5091860;28;20556;-56
2023/05/05 09:36:44;;;;;;;2.03;1.80;;;17.10;99.90;;;;;;5092991;28;20478;-55
2023/05/05 09:39:11;;;;;;;3.53;2.93;;;17.10;99.90;;;;;;5090051;28;20929;-55
2023/05/05 09:41:39;;;;;;;3.10;2.70;;;17.20;99.90;;;;;;5091874;28;20543;-55
2023/05/05 09:44:07;;;;;;;2.90;2.40;;;17.40;99.90;;;;;;5093126;28;20510;-55
2023/05/05 09:46:34;;;;;;;3.20;2.90;;;17.30;99.90;;;;;;5092084;28;20476;-56
2023/05/05 09:49:16;;;;;;;3.30;2.17;;;17.50;99.90;;;;;;5079952;28;20521;-55
2023/05/05 09:51:45;;;;;;;3.53;2.47;;;17.40;99.90;;;;;;5092810;28;20449;-55
2023/05/05 09:54:22;;;;;;;2.33;2.13;;;17.40;99.90;;;;;;5090542;28;20447;-56
2023/05/05 09:56:51;;;;;;;2.90;2.00;;;17.30;99.90;;;;;;5088828;28;20574;-56
2023/05/05 09:59:19;;;;;;;2.10;1.90;;;17.10;99.90;;;;;;5083457;28;20795;-56
2023/05/05 10:01:46;;;;;;;2.83;2.03;;;17.00;99.90;;;;;;5093686;28;20491;-56
2023/05/05 10:04:26;;;;;;;2.60;1.80;;;17.00;99.90;;;;;;5076357;28;20453;-55
2023/05/05 10:06:55;;;;;;;3.10;2.47;;;17.10;99.90;;;;;;5079649;28;20439;-56
2023/05/05 10:09:22;;;;;;;3.00;2.07;;;17.20;99.90;;;;;;5091513;28;20440;-56
2023/05/05 10:11:50;;;;;;;6.00;2.50;;;17.50;99.90;;;;;;5081153;28;20545;-55
2023/05/05 10:14:18;;;;;;;3.67;2.70;;;17.60;99.90;;;;;;5089573;28;20538;-56
2023/05/05 10:16:49;;;;;;;2.40;2.20;;;17.50;99.90;;;;;;5094541;28;20470;-55
2023/05/05 10:19:18;;;;;;;2.40;2.20;;;17.40;99.90;;;;;;5094923;28;20961;-55
2023/05/05 10:21:49;;;;;;;5.23;2.27;;;17.40;99.90;;;;;;5094534;28;20493;-56
2023/05/05 10:24:27;;;;;;;4.37;2.80;;;17.40;99.90;;;;;;5086043;28;20536;-57
2023/05/05 10:26:57;;;;;;;2.60;2.40;;;17.30;99.90;;;;;;5089163;28;20516;-56
2023/05/05 10:29:33;;;;;;;3.10;2.40;;;17.50;99.90;;;;;;5085243;28;20480;-56
2023/05/05 10:32:05;;;;;;;2.67;2.40;;;17.80;99.90;;;;;;5086953;28;20475;-57
2023/05/05 10:34:40;;;;;;;3.20;2.90;;;18.20;99.90;;;;;;5087130;28;20829;-56
2023/05/05 10:37:07;;;;;;;3.03;2.33;;;18.10;99.90;;;;;;5087526;28;20576;-56
2023/05/05 10:39:38;;;;;;;2.43;2.13;;;18.30;99.90;;;;;;5083789;28;20454;-56
2023/05/05 10:42:05;;;;;;;4.67;2.60;;;18.50;99.90;;;;;;5084173;28;20882;-55
2023/05/05 10:44:32;;;;;;;2.87;2.47;;;18.40;99.90;;;;;;5085357;28;20972;-57
2023/05/05 10:47:00;;;;;;;3.93;2.53;;;18.90;99.90;;;;;;5093471;28;20456;-56
2023/05/05 10:49:35;;;;;;;3.00;1.97;;;18.90;99.90;;;;;;5093487;28;20479;-55
2023/05/05 10:52:12;;;;;;;3.40;2.60;;;18.80;99.90;;;;;;5093742;28;20476;-57
2023/05/05 10:54:48;;;;;;;3.90;2.27;;;19.00;99.90;;;;;;5093605;28;20436;-56
2023/05/05 10:57:18;;;;;;;2.60;2.40;;;19.00;99.90;;;;;;5093894;28;20949;-55
2023/05/05 10:59:46;;;;;;;3.17;2.40;;;19.00;99.90;;;;;;5093059;28;20526;-56
2023/05/05 11:02:24;;;;;;;2.20;2.00;;;19.40;99.90;;;;;;5092868;28;20447;-55
2023/05/05 11:05:16;;;;;;;3.03;2.47;;;19.60;99.90;;;;;;5093454;28;21006;-56
2023/05/05 11:07:44;;;;;;;5.80;2.47;;;19.50;99.90;;;;;;5092195;28;20445;-56
2023/05/05 11:10:15;;;;;;;3.00;2.47;;;19.70;99.90;;;;;;5091795;28;20907;-56
2023/05/05 11:13:19;;;;;;;4.07;3.10;;;19.90;99.90;;;;;;5092254;28;20475;-55
2023/05/05 11:15:46;;;;;;;3.97;2.43;;;19.90;99.90;;;;;;5081946;28;20542;-57
2023/05/05 11:18:30;;;;;;;3.13;2.83;;;19.70;99.90;;;;;;5092295;28;20507;-56
2023/05/05 11:21:18;;;;;;;3.57;2.40;;;19.60;99.90;;;;;;5092982;28;20472;-55
2023/05/05 11:23:50;;;;;;;5.70;2.60;;;19.80;99.90;;;;;;5093261;28;20483;-56
2023/05/05 11:26:39;;;;;;;2.60;2.40;;;19.90;99.90;;;;;;5093097;28;20432;-56
2023/05/05 11:29:07;;;;;;;3.50;2.70;;;20.50;99.90;;;;;;5091754;28;20439;-55
2023/05/05 11:31:34;;;;;;;5.10;2.80;;;20.20;99.90;;;;;;5093421;28;20558;-55
2023/05/05 11:34:23;;;;;;;3.13;2.83;;;20.50;99.90;;;;;;5092385;28;20490;-57
2023/05/05 11:36:52;;;;;;;2.67;2.40;;;20.70;99.90;;;;;;5092777;28;20532;-56
2023/05/05 11:39:26;;;;;;;2.43;2.23;;;20.40;99.90;;;;;;5092476;28;20449;-57
2023/05/05 11:42:07;;;;;;;3.73;2.43;;;20.70;99.90;;;;;;5093503;28;20439;-55
2023/05/05 11:44:35;;;;;;;5.60;2.57;;;20.70;99.90;;;;;;5072683;28;20440;-56
2023/05/05 11:47:25;;;;;;;2.50;2.23;;;20.50;99.90;;;;;;5072660;28;20484;-56
2023/05/05 11:49:51;;;;;;;4.03;2.87;;;20.70;99.90;;;;;;5071919;28;20498;-57
2023/05/05 11:52:18;;;;;;;3.10;2.80;;;20.40;99.90;;;;;;5087051;28;20826;-56
2023/05/05 11:54:47;;;;;;;3.10;2.80;;;20.70;99.90;;;;;;5093282;28;20547;-56
2023/05/05 11:57:16;;;;;;;3.10;2.60;;;20.70;99.90;;;;;;5092912;28;20471;-57
2023/05/05 11:59:54;;;;;;;3.10;2.40;;;20.60;99.90;;;;;;5092167;28;20448;-56
2023/05/05 12:02:21;;;;;;;2.50;2.30;;;20.60;99.90;;;;;;5092368;28;20443;-56
2023/05/05 12:04:49;;;;;;;3.40;2.50;;;20.40;99.90;;;;;;5092693;28;20539;-56
2023/05/05 12:07:17;;;;;;;2.73;2.37;;;20.80;99.90;;;;;;5092365;28;20959;-56
2023/05/05 12:09:45;;;;;;;3.27;2.40;;;21.00;99.90;;;;;;5092535;28;20874;-56
2023/05/05 12:12:12;;;;;;;2.50;2.20;;;21.30;99.90;;;;;;5091423;28;20443;-57
2023/05/05 12:14:51;;;;;;;3.67;2.60;;;21.00;99.90;;;;;;5092053;28;20526;-56
2023/05/05 12:17:20;;;;;;;2.97;2.67;;;21.10;99.90;;;;;;5092177;28;20832;-56
2023/05/05 12:19:51;;;;;;;4.07;2.43;;;21.10;99.90;;;;;;5092103;28;20694;-56
2023/05/05 12:22:24;;;;;;;4.23;2.50;;;21.10;99.90;;;;;;5092132;28;20519;-57
2023/05/05 12:24:57;;;;;;;3.30;2.60;;;21.00;99.90;;;;;;5091829;28;20542;-58
2023/05/05 12:27:25;;;;;;;2.50;2.30;;;21.10;99.90;;;;;;5091733;28;20520;-57
2023/05/05 12:29:55;;;;;;;3.27;2.10;;;21.20;99.90;;;;;;5091389;28;20863;-57
2023/05/05 12:32:24;;;;;;;3.60;2.20;;;21.40;99.90;;;;;;5091755;28;20952;-57
2023/05/05 12:34:56;;;;;;;2.10;1.90;;;21.30;99.90;;;;;;5091018;28;20546;-57
2023/05/05 12:37:23;;;;;;;3.57;3.00;;;21.20;99.90;;;;;;5091212;28;20480;-58
2023/05/05 12:39:51;;;;;;;3.70;2.63;;;21.60;99.90;;;;;;5091433;28;20539;-58
2023/05/05 12:42:18;;;;;;;3.20;2.67;;;21.60;99.90;;;;;;5091754;28;20954;-57
2023/05/05 12:44:45;;;;;;;3.53;2.70;;;21.20;99.90;;;;;;5091697;28;20471;-56
2023/05/05 12:47:14;;;;;;;2.93;2.60;;;21.40;99.20;;;;;;5092284;28;20450;-56
2023/05/05 12:49:48;;;;;;;2.73;2.53;;;21.30;99.90;;;;;;5090659;28;20446;-57
2023/05/05 12:52:16;;;;;;;3.23;2.30;;;21.10;99.90;;;;;;5091357;28;20484;-57
2023/05/05 12:54:53;;;;;;;2.47;2.27;;;21.00;99.90;;;;;;5091172;28;20780;-56
2023/05/05 12:57:21;;;;;;;3.13;2.30;;;21.20;99.90;;;;;;5090567;28;20444;-56
2023/05/05 12:59:48;;;;;;;3.07;2.70;;;21.20;99.90;;;;;;5089035;28;20478;-56